createdAt,value
2019-06-27T00:00:44.594Z,1008.68
2019-06-27T00:01:43.225Z,1008.73
2019-06-27T00:02:41.758Z,1008.68
2019-06-27T00:03:40.343Z,1008.69
2019-06-27T00:04:39.331Z,1008.69
2019-06-27T00:05:37.882Z,1008.7
2019-06-27T00:06:36.422Z,1008.73
2019-06-27T00:07:34.955Z,1008.77
2019-06-27T00:08:33.504Z,1008.74
2019-06-27T00:09:32.040Z,1008.79
2019-06-27T00:10:33.977Z,1008.77
2019-06-27T00:11:29.475Z,1008.76
2019-06-27T00:12:28.029Z,1008.78
2019-06-27T00:13:26.747Z,1008.81
2019-06-27T00:14:25.306Z,1008.83
2019-06-27T00:15:23.872Z,1008.84
2019-06-27T00:16:22.453Z,1008.88
2019-06-27T00:17:21.028Z,1008.88
2019-06-27T00:18:19.563Z,1008.91
2019-06-27T00:19:18.097Z,1008.93
2019-06-27T00:20:16.648Z,1008.94
2019-06-27T00:21:15.177Z,1008.96
2019-06-27T00:22:13.702Z,1008.93
2019-06-27T00:23:12.231Z,1008.92
2019-06-27T00:24:10.775Z,1008.95
2019-06-27T00:25:09.325Z,1008.92
2019-06-27T00:26:07.870Z,1008.95
2019-06-27T00:27:06.614Z,1008.94
2019-06-27T00:28:05.268Z,1008.91
2019-06-27T00:29:03.806Z,1008.89
2019-06-27T00:30:02.458Z,1008.91
2019-06-27T00:31:01.089Z,1008.84
2019-06-27T00:31:59.622Z,1008.86
2019-06-27T00:32:58.282Z,1008.83
2019-06-27T00:33:56.792Z,1008.76
2019-06-27T00:34:55.326Z,1008.76
2019-06-27T00:35:53.880Z,1008.78
2019-06-27T00:36:52.398Z,1008.79
2019-06-27T00:37:50.946Z,1008.76
2019-06-27T00:38:49.498Z,1008.84
2019-06-27T00:39:48.048Z,1008.83
2019-06-27T00:40:46.835Z,1008.85
2019-06-27T00:41:45.357Z,1008.84
2019-06-27T00:42:43.913Z,1008.9
2019-06-27T00:43:42.510Z,1008.91
2019-06-27T00:44:41.145Z,1008.93
2019-06-27T00:45:39.704Z,1008.94
2019-06-27T00:46:38.285Z,1008.96
2019-06-27T00:47:37.003Z,1008.96
2019-06-27T00:48:35.552Z,1009
2019-06-27T00:49:34.083Z,1008.95
2019-06-27T00:50:32.634Z,1009
2019-06-27T00:51:31.177Z,1008.99
2019-06-27T00:52:29.725Z,1009.02
2019-06-27T00:53:28.267Z,1009.01
2019-06-27T00:54:26.807Z,1009.05
2019-06-27T00:55:25.393Z,1009.05
2019-06-27T00:56:23.941Z,1009.02
2019-06-27T00:57:22.642Z,1009.01
2019-06-27T00:58:21.184Z,1009.03
2019-06-27T00:59:19.789Z,1009.05
2019-06-27T01:00:18.356Z,1009.01
2019-06-27T01:01:17.053Z,1009.11
2019-06-27T01:02:15.696Z,1009.13
2019-06-27T01:03:14.359Z,1009.09
2019-06-27T01:04:12.917Z,1009.12
2019-06-27T01:05:11.478Z,1009.12
2019-06-27T01:06:09.996Z,1009.14
2019-06-27T01:07:08.570Z,1009.13
2019-06-27T01:08:07.278Z,1009.12
2019-06-27T01:09:05.842Z,1009.12
2019-06-27T01:10:04.464Z,1009.13
2019-06-27T01:11:03.161Z,1009.15
2019-06-27T01:12:01.700Z,1009.15
2019-06-27T01:13:00.526Z,1009.13
2019-06-27T01:13:59.200Z,1009.09
2019-06-27T01:14:57.755Z,1009.1
2019-06-27T01:15:56.296Z,1009.13
2019-06-27T01:16:54.971Z,1009.12
2019-06-27T01:17:53.522Z,1009.03
2019-06-27T01:18:52.075Z,1009.11
2019-06-27T01:19:50.916Z,1009.13
2019-06-27T01:20:49.450Z,1009.14
2019-06-27T01:21:48.010Z,1009.16
2019-06-27T01:22:46.614Z,1009.15
2019-06-27T01:23:45.300Z,1009.17
2019-06-27T01:24:43.741Z,1009.16
2019-06-27T01:25:42.620Z,1009.2
2019-06-27T01:26:41.214Z,1009.18
2019-06-27T01:27:39.765Z,1009.21
2019-06-27T01:28:38.305Z,1009.26
2019-06-27T01:29:37.037Z,1009.3
2019-06-27T01:30:35.593Z,1009.28
2019-06-27T01:31:34.247Z,1009.28
2019-06-27T01:33:41.965Z,1009.29
2019-06-27T01:34:40.561Z,1009.28
2019-06-27T01:35:39.111Z,1009.27
2019-06-27T01:36:37.649Z,1009.3
2019-06-27T01:37:36.198Z,1009.3
2019-06-27T01:38:34.746Z,1009.28
2019-06-27T01:39:33.312Z,1009.24
2019-06-27T01:40:31.860Z,1009.25
2019-06-27T01:41:30.672Z,1009.26
2019-06-27T01:42:29.358Z,1009.2
2019-06-27T01:43:27.910Z,1009.15
2019-06-27T01:44:26.618Z,1009.2
2019-06-27T01:45:25.170Z,1009.19
2019-06-27T01:46:23.711Z,1009.2
2019-06-27T01:47:22.290Z,1009.17
2019-06-27T01:48:20.843Z,1009.2
2019-06-27T01:49:19.375Z,1009.15
2019-06-27T01:50:17.950Z,1009.2
2019-06-27T01:51:16.487Z,1009.19
2019-06-27T01:52:15.136Z,1009.19
2019-06-27T01:53:13.674Z,1009.21
2019-06-27T01:54:12.249Z,1009.2
2019-06-27T01:55:10.928Z,1009.22
2019-06-27T01:56:09.470Z,1009.25
2019-06-27T01:57:07.999Z,1009.27
2019-06-27T01:58:06.801Z,1009.3
2019-06-27T01:59:05.375Z,1009.32
2019-06-27T02:00:03.915Z,1009.38
2019-06-27T02:01:02.500Z,1009.42
2019-06-27T02:02:01.005Z,1009.42
2019-06-27T02:02:59.582Z,1009.45
2019-06-27T02:03:58.147Z,1009.46
2019-06-27T02:04:56.680Z,1009.46
2019-06-27T02:05:55.237Z,1009.42
2019-06-27T02:06:53.808Z,1009.45
2019-06-27T02:07:52.582Z,1009.43
2019-06-27T02:08:51.132Z,1009.45
2019-06-27T02:09:49.670Z,1009.45
2019-06-27T02:10:48.203Z,1009.45
2019-06-27T02:11:46.922Z,1009.46
2019-06-27T02:12:45.480Z,1009.48
2019-06-27T02:13:43.989Z,1009.43
2019-06-27T02:14:42.576Z,1009.45
2019-06-27T02:15:41.126Z,1009.47
2019-06-27T02:16:39.681Z,1009.5
2019-06-27T02:17:38.290Z,1009.5
2019-06-27T02:18:36.845Z,1009.49
2019-06-27T02:19:35.399Z,1009.51
2019-06-27T02:20:33.937Z,1009.6
2019-06-27T02:21:32.470Z,1009.6
2019-06-27T02:22:31.010Z,1009.59
2019-06-27T02:23:29.561Z,1009.56
2019-06-27T02:24:28.101Z,1009.6
2019-06-27T02:25:26.924Z,1009.6
2019-06-27T02:26:25.467Z,1009.62
2019-06-27T02:27:23.994Z,1009.61
2019-06-27T02:30:23.341Z,1009.57
2019-06-27T02:31:21.877Z,1009.55
2019-06-27T02:32:20.509Z,1009.53
2019-06-27T02:33:19.175Z,1009.55
2019-06-27T02:34:17.742Z,1009.55
2019-06-27T02:35:16.336Z,1009.57
2019-06-27T02:36:15.014Z,1009.55
2019-06-27T02:37:13.574Z,1009.59
2019-06-27T02:38:12.120Z,1009.59
2019-06-27T02:39:10.661Z,1009.57
2019-06-27T02:40:09.204Z,1009.57
2019-06-27T02:41:07.755Z,1009.54
2019-06-27T02:43:15.498Z,1009.53
2019-06-27T02:44:14.060Z,1009.56
2019-06-27T02:45:12.788Z,1009.58
2019-06-27T02:46:11.313Z,1009.61
2019-06-27T02:47:09.858Z,1009.64
2019-06-27T02:48:08.459Z,1009.66
2019-06-27T02:49:07.242Z,1009.64
2019-06-27T02:50:05.816Z,1009.67
2019-06-27T02:51:04.482Z,1009.66
2019-06-27T02:52:03.012Z,1009.69
2019-06-27T02:53:01.602Z,1009.72
2019-06-27T02:54:00.149Z,1009.7
2019-06-27T02:54:58.653Z,1009.7
2019-06-27T02:55:57.241Z,1009.68
2019-06-27T02:56:55.732Z,1009.67
2019-06-27T02:57:54.281Z,1009.64
2019-06-27T02:58:52.815Z,1009.66
2019-06-27T02:59:51.369Z,1009.67
2019-06-27T03:00:49.907Z,1009.64
2019-06-27T03:01:48.488Z,1009.65
2019-06-27T03:02:47.175Z,1009.71
2019-06-27T03:05:29.207Z,1009.69
2019-06-27T03:06:27.801Z,1009.71
2019-06-27T03:07:26.586Z,1009.69
2019-06-27T03:08:25.138Z,1009.65
2019-06-27T03:09:23.689Z,1009.62
2019-06-27T03:10:22.246Z,1009.63
2019-06-27T03:11:20.775Z,1009.65
2019-06-27T03:12:19.329Z,1009.65
2019-06-27T03:13:17.911Z,1009.61
2019-06-27T03:14:16.504Z,1009.64
2019-06-27T03:15:15.182Z,1009.65
2019-06-27T03:16:13.724Z,1009.68
2019-06-27T03:17:12.266Z,1009.68
2019-06-27T03:18:10.910Z,1009.7
2019-06-27T03:19:09.472Z,1009.69
2019-06-27T03:20:08.010Z,1009.7
2019-06-27T03:21:06.591Z,1009.69
2019-06-27T03:22:05.872Z,1009.7
2019-06-27T03:23:03.770Z,1009.71
2019-06-27T03:24:02.361Z,1009.65
2019-06-27T03:25:00.898Z,1009.68
2019-06-27T03:25:59.439Z,1009.72
2019-06-27T03:26:57.986Z,1009.7
2019-06-27T03:27:56.530Z,1009.64
2019-06-27T03:28:55.083Z,1009.65
2019-06-27T03:29:53.606Z,1009.65
2019-06-27T03:30:52.163Z,1009.63
2019-06-27T03:31:50.682Z,1009.64
2019-06-27T03:32:49.223Z,1009.63
2019-06-27T03:33:47.779Z,1009.66
2019-06-27T03:34:46.363Z,1009.68
2019-06-27T03:35:45.123Z,1009.71
2019-06-27T03:36:43.663Z,1009.72
2019-06-27T03:37:42.214Z,1009.69
2019-06-27T03:38:41.035Z,1009.68
2019-06-27T03:39:39.584Z,1009.68
2019-06-27T03:40:38.143Z,1009.72
2019-06-27T03:41:36.682Z,1009.75
2019-06-27T03:42:35.237Z,1009.72
2019-06-27T03:43:33.762Z,1009.7
2019-06-27T03:44:32.323Z,1009.73
2019-06-27T03:45:30.867Z,1009.7
2019-06-27T03:46:29.402Z,1009.72
2019-06-27T03:47:27.958Z,1009.7
2019-06-27T03:48:26.469Z,1009.7
2019-06-27T03:49:25.017Z,1009.7
2019-06-27T03:50:23.599Z,1009.69
2019-06-27T03:51:22.144Z,1009.66
2019-06-27T03:52:20.972Z,1009.69
2019-06-27T03:53:19.528Z,1009.69
2019-06-27T03:54:18.107Z,1009.7
2019-06-27T03:55:16.730Z,1009.66
2019-06-27T03:56:15.338Z,1009.73
2019-06-27T03:57:13.895Z,1009.71
2019-06-27T03:58:12.514Z,1009.74
2019-06-27T03:59:13.278Z,1009.72
2019-06-27T04:00:09.759Z,1009.75
2019-06-27T04:01:08.317Z,1009.78
2019-06-27T04:02:07.129Z,1009.76
2019-06-27T04:03:05.662Z,1009.78
2019-06-27T04:04:04.205Z,1009.8
2019-06-27T04:05:02.949Z,1009.76
2019-06-27T04:06:01.543Z,1009.78
2019-06-27T04:07:00.179Z,1009.8
2019-06-27T04:07:58.707Z,1009.82
2019-06-27T04:08:57.290Z,1009.73
2019-06-27T04:09:55.883Z,1009.72
2019-06-27T04:10:54.447Z,1009.77
2019-06-27T04:11:53.189Z,1009.81
2019-06-27T04:12:51.714Z,1009.78
2019-06-27T04:13:50.271Z,1009.8
2019-06-27T04:14:48.881Z,1009.77
2019-06-27T04:15:47.489Z,1009.76
2019-06-27T04:16:49.092Z,1009.77
2019-06-27T04:17:44.680Z,1009.76
2019-06-27T04:18:43.307Z,1009.78
2019-06-27T04:19:41.847Z,1009.8
2019-06-27T04:20:40.411Z,1009.81
2019-06-27T04:21:38.958Z,1009.74
2019-06-27T04:22:37.489Z,1009.76
2019-06-27T04:23:36.051Z,1009.79
2019-06-27T04:24:34.593Z,1009.75
2019-06-27T04:25:33.166Z,1009.75
2019-06-27T04:26:31.703Z,1009.75
2019-06-27T04:27:30.259Z,1009.72
2019-06-27T04:28:28.973Z,1009.76
2019-06-27T04:29:33.769Z,1009.78
2019-06-27T04:30:26.112Z,1009.8
2019-06-27T04:31:24.896Z,1009.83
2019-06-27T04:32:23.463Z,1009.82
2019-06-27T04:33:21.997Z,1009.84
2019-06-27T04:34:20.606Z,1009.83
2019-06-27T04:35:19.200Z,1009.81
2019-06-27T04:36:17.730Z,1009.84
2019-06-27T04:37:16.292Z,1009.84
2019-06-27T04:38:14.818Z,1009.87
2019-06-27T04:39:13.365Z,1009.83
2019-06-27T04:40:11.889Z,1009.89
2019-06-27T04:41:10.446Z,1009.86
2019-06-27T04:42:08.958Z,1009.85
2019-06-27T04:43:07.679Z,1009.87
2019-06-27T04:44:06.267Z,1009.96
2019-06-27T04:45:04.855Z,1010
2019-06-27T04:46:03.541Z,1010.04
2019-06-27T04:47:02.059Z,1010.07
2019-06-27T04:48:00.826Z,1009.98
2019-06-27T04:48:59.409Z,1010
2019-06-27T04:49:57.962Z,1010
2019-06-27T04:50:56.524Z,1009.99
2019-06-27T04:51:55.117Z,1010.03
2019-06-27T04:52:53.677Z,1010
2019-06-27T04:53:52.452Z,1010
2019-06-27T04:54:51.212Z,1010.03
2019-06-27T04:55:49.748Z,1010.03
2019-06-27T04:56:48.288Z,1010.09
2019-06-27T04:57:46.995Z,1010.1
2019-06-27T04:58:45.551Z,1010.07
2019-06-27T04:59:53.001Z,1010.07
2019-06-27T05:00:42.685Z,1010.05
2019-06-27T05:01:41.230Z,1010.1
2019-06-27T05:02:39.776Z,1010.09
2019-06-27T05:03:38.309Z,1010.09
2019-06-27T05:04:36.864Z,1010.06
2019-06-27T05:05:35.482Z,1010.08
2019-06-27T05:06:34.026Z,1010.08
2019-06-27T05:07:32.803Z,1010.07
2019-06-27T05:08:31.386Z,1010.1
2019-06-27T05:09:29.936Z,1010.13
2019-06-27T05:10:28.707Z,1010.1
2019-06-27T05:11:27.299Z,1010.04
2019-06-27T05:12:26.096Z,1010.08
2019-06-27T05:13:24.970Z,1010.07
2019-06-27T05:15:58.976Z,1010.01
2019-06-27T05:16:57.609Z,1010
2019-06-27T05:17:56.045Z,1010.06
2019-06-27T05:18:54.648Z,1010.12
2019-06-27T05:19:53.290Z,1010.16
2019-06-27T05:20:51.834Z,1010.1
2019-06-27T05:21:50.443Z,1010.17
2019-06-27T05:22:49.081Z,1010.1
2019-06-27T05:23:47.654Z,1010.1
2019-06-27T05:24:46.175Z,1010.12
2019-06-27T05:25:45.075Z,1010.13
2019-06-27T05:26:43.623Z,1010.13
2019-06-27T05:27:42.140Z,1010.15
2019-06-27T05:28:40.805Z,1010.31
2019-06-27T05:29:39.391Z,1010.24
2019-06-27T05:30:38.101Z,1010.19
2019-06-27T05:31:36.732Z,1010.18
2019-06-27T05:32:35.346Z,1010.16
2019-06-27T05:33:34.137Z,1010.17
2019-06-27T05:34:32.763Z,1010.18
2019-06-27T05:35:31.389Z,1010.2
2019-06-27T05:36:29.955Z,1010.27
2019-06-27T05:37:28.683Z,1010.25
2019-06-27T05:38:27.205Z,1010.29
2019-06-27T05:39:25.729Z,1010.24
2019-06-27T05:40:24.307Z,1010.25
2019-06-27T05:41:22.885Z,1010.25
2019-06-27T05:42:21.710Z,1010.28
2019-06-27T05:43:20.225Z,1010.26
2019-06-27T05:44:18.886Z,1010.32
2019-06-27T05:45:17.590Z,1010.31
2019-06-27T05:46:16.250Z,1010.43
2019-06-27T05:47:14.923Z,1010.4
2019-06-27T05:48:13.416Z,1010.52
2019-06-27T05:49:11.962Z,1010.38
2019-06-27T05:50:10.544Z,1010.43
2019-06-27T05:51:09.214Z,1010.33
2019-06-27T05:52:07.848Z,1010.36
2019-06-27T05:53:06.494Z,1010.39
2019-06-27T05:54:05.345Z,1010.38
2019-06-27T05:55:04.034Z,1010.45
2019-06-27T05:56:02.664Z,1010.43
2019-06-27T05:57:01.106Z,1010.47
2019-06-27T05:57:59.661Z,1010.53
2019-06-27T05:58:58.210Z,1010.54
2019-06-27T05:59:56.743Z,1010.52
2019-06-27T06:00:55.275Z,1010.47
2019-06-27T06:01:54.046Z,1010.5
2019-06-27T06:04:29.013Z,1010.51
2019-06-27T06:05:27.573Z,1010.54
2019-06-27T06:06:26.140Z,1010.6
2019-06-27T06:07:24.757Z,1010.54
2019-06-27T06:08:23.457Z,1010.51
2019-06-27T06:09:21.948Z,1010.58
2019-06-27T06:10:20.514Z,1010.57
2019-06-27T06:11:19.187Z,1010.57
2019-06-27T06:12:17.705Z,1010.63
2019-06-27T06:13:16.348Z,1010.61
2019-06-27T06:14:14.900Z,1010.64
2019-06-27T06:15:13.435Z,1010.62
2019-06-27T06:16:11.971Z,1010.66
2019-06-27T06:17:10.542Z,1010.64
2019-06-27T06:18:09.100Z,1010.64
2019-06-27T06:19:07.646Z,1010.67
2019-06-27T06:20:06.162Z,1010.73
2019-06-27T06:21:04.993Z,1010.73
2019-06-27T06:22:03.520Z,1010.75
2019-06-27T06:23:02.065Z,1010.77
2019-06-27T06:24:00.977Z,1010.77
2019-06-27T06:24:59.528Z,1010.75
2019-06-27T06:25:58.100Z,1010.79
2019-06-27T06:26:56.656Z,1010.76
2019-06-27T06:27:55.213Z,1010.82
2019-06-27T06:28:53.792Z,1010.81
2019-06-27T06:29:52.354Z,1010.89
2019-06-27T06:30:51.186Z,1010.86
2019-06-27T06:31:49.765Z,1010.85
2019-06-27T06:32:48.380Z,1010.88
2019-06-27T06:33:47.149Z,1010.87
2019-06-27T06:34:45.682Z,1010.86
2019-06-27T06:35:44.228Z,1010.91
2019-06-27T06:36:42.851Z,1010.9
2019-06-27T06:37:41.339Z,1010.88
2019-06-27T06:38:39.877Z,1010.93
2019-06-27T06:39:38.509Z,1010.9
2019-06-27T06:40:37.297Z,1010.9
2019-06-27T06:41:35.845Z,1010.94
2019-06-27T06:42:34.372Z,1010.92
2019-06-27T06:43:32.967Z,1010.94
2019-06-27T06:44:31.517Z,1010.94
2019-06-27T06:45:30.058Z,1010.88
2019-06-27T06:46:28.825Z,1010.9
2019-06-27T06:47:27.388Z,1010.92
2019-06-27T06:48:25.933Z,1010.98
2019-06-27T06:49:24.533Z,1010.95
2019-06-27T06:50:23.568Z,1010.95
2019-06-27T06:51:21.590Z,1010.95
2019-06-27T06:52:20.153Z,1011.04
2019-06-27T06:53:18.675Z,1010.98
2019-06-27T06:54:17.212Z,1011.04
2019-06-27T06:55:15.752Z,1010.98
2019-06-27T06:56:14.354Z,1010.97
2019-06-27T06:57:12.996Z,1011.05
2019-06-27T06:58:11.561Z,1010.94
2019-06-27T06:59:10.098Z,1011.01
2019-06-27T07:00:08.790Z,1010.97
2019-06-27T07:01:07.377Z,1010.96
2019-06-27T07:02:05.964Z,1011.01
2019-06-27T07:03:04.669Z,1011.06
2019-06-27T07:04:03.302Z,1010.96
2019-06-27T07:05:01.866Z,1010.91
2019-06-27T07:06:00.341Z,1010.99
2019-06-27T07:06:58.919Z,1010.97
2019-06-27T07:07:57.454Z,1010.98
2019-06-27T07:08:56.009Z,1010.97
2019-06-27T07:09:54.541Z,1010.97
2019-06-27T07:10:53.091Z,1010.98
2019-06-27T07:11:51.616Z,1011.02
2019-06-27T07:12:50.140Z,1010.95
2019-06-27T07:13:48.704Z,1011.01
2019-06-27T07:14:47.437Z,1011.04
2019-06-27T07:15:45.974Z,1010.99
2019-06-27T07:16:46.530Z,1011.04
2019-06-27T07:17:45.151Z,1011.06
2019-06-27T07:18:43.750Z,1010.98
2019-06-27T07:19:42.319Z,1010.99
2019-06-27T07:20:40.919Z,1011
2019-06-27T07:21:39.506Z,1010.99
2019-06-27T07:22:38.068Z,1010.97
2019-06-27T07:23:36.606Z,1010.96
2019-06-27T07:24:35.126Z,1010.97
2019-06-27T07:25:33.708Z,1010.98
2019-06-27T07:26:32.209Z,1010.96
2019-06-27T07:27:30.739Z,1010.97
2019-06-27T07:28:29.279Z,1010.96
2019-06-27T07:29:27.883Z,1010.96
2019-06-27T07:30:26.393Z,1010.93
2019-06-27T07:31:24.990Z,1010.91
2019-06-27T07:32:23.560Z,1010.94
2019-06-27T07:33:22.111Z,1010.98
2019-06-27T07:34:20.744Z,1010.98
2019-06-27T07:35:19.421Z,1010.98
2019-06-27T07:36:17.935Z,1010.95
2019-06-27T07:37:16.712Z,1010.96
2019-06-27T07:38:15.300Z,1010.96
2019-06-27T07:39:13.829Z,1010.98
2019-06-27T07:40:12.391Z,1010.96
2019-06-27T07:41:10.907Z,1010.98
2019-06-27T07:42:09.515Z,1010.98
2019-06-27T07:43:08.059Z,1011.04
2019-06-27T07:44:06.601Z,1011.01
2019-06-27T07:45:05.228Z,1010.98
2019-06-27T07:46:03.826Z,1010.98
2019-06-27T07:47:02.362Z,1011.01
2019-06-27T07:48:00.951Z,1010.93
2019-06-27T07:48:59.576Z,1010.95
2019-06-27T07:49:58.121Z,1011.01
2019-06-27T07:50:56.793Z,1010.96
2019-06-27T07:51:55.328Z,1010.98
2019-06-27T07:52:53.891Z,1010.92
2019-06-27T07:53:52.513Z,1010.92
2019-06-27T07:54:51.102Z,1010.93
2019-06-27T07:55:49.650Z,1010.95
2019-06-27T07:56:48.187Z,1010.89
2019-06-27T07:57:46.760Z,1010.87
2019-06-27T07:58:45.393Z,1010.88
2019-06-27T07:59:43.947Z,1010.87
2019-06-27T08:00:42.508Z,1010.91
2019-06-27T08:01:41.165Z,1010.93
2019-06-27T08:02:39.733Z,1010.86
2019-06-27T08:03:38.270Z,1010.9
2019-06-27T08:04:37.003Z,1010.87
2019-06-27T08:05:35.569Z,1010.85
2019-06-27T08:06:34.110Z,1010.87
2019-06-27T08:07:32.779Z,1010.93
2019-06-27T08:08:31.340Z,1010.94
2019-06-27T08:09:29.855Z,1010.89
2019-06-27T08:10:28.417Z,1011
2019-06-27T08:11:26.934Z,1010.88
2019-06-27T08:12:25.491Z,1010.84
2019-06-27T08:13:24.111Z,1010.93
2019-06-27T08:14:22.897Z,1010.94
2019-06-27T08:15:21.613Z,1010.89
2019-06-27T08:17:29.639Z,1010.9
2019-06-27T08:18:28.509Z,1010.9
2019-06-27T08:19:26.807Z,1010.83
2019-06-27T08:20:25.345Z,1010.82
2019-06-27T08:21:23.892Z,1010.88
2019-06-27T08:24:04.041Z,1010.87
2019-06-27T08:25:02.761Z,1010.84
2019-06-27T08:26:01.504Z,1010.82
2019-06-27T08:27:00.041Z,1010.78
2019-06-27T08:27:58.752Z,1010.79
2019-06-27T08:28:57.349Z,1010.88
2019-06-27T08:29:55.990Z,1010.75
2019-06-27T08:30:54.452Z,1010.82
2019-06-27T08:33:10.297Z,1010.79
2019-06-27T08:34:08.969Z,1010.75
2019-06-27T08:35:07.529Z,1010.73
2019-06-27T08:36:06.063Z,1010.75
2019-06-27T08:37:04.622Z,1010.76
2019-06-27T08:38:20.879Z,1010.78
2019-06-27T08:39:19.495Z,1010.86
2019-06-27T08:40:18.009Z,1010.77
2019-06-27T08:41:16.585Z,1010.71
2019-06-27T08:42:15.133Z,1010.69
2019-06-27T08:43:13.646Z,1010.73
2019-06-27T08:44:12.205Z,1010.71
2019-06-27T08:45:10.822Z,1010.65
2019-06-27T08:46:09.327Z,1010.68
2019-06-27T08:47:07.827Z,1010.69
2019-06-27T08:48:06.388Z,1010.7
2019-06-27T08:49:05.217Z,1010.73
2019-06-27T08:50:03.752Z,1010.69
2019-06-27T08:51:02.314Z,1010.65
2019-06-27T08:52:01.193Z,1010.63
2019-06-27T08:53:01.346Z,1010.66
2019-06-27T08:53:58.294Z,1010.67
2019-06-27T08:54:56.835Z,1010.62
2019-06-27T08:55:55.500Z,1010.65
2019-06-27T08:56:53.989Z,1010.62
2019-06-27T08:57:52.837Z,1010.62
2019-06-27T08:58:51.591Z,1010.63
2019-06-27T08:59:50.215Z,1010.66
2019-06-27T09:00:48.782Z,1010.62
2019-06-27T09:01:47.412Z,1010.61
2019-06-27T09:02:45.992Z,1010.67
2019-06-27T09:03:44.493Z,1010.62
2019-06-27T09:04:43.124Z,1010.61
2019-06-27T09:05:41.763Z,1010.65
2019-06-27T09:06:40.343Z,1010.66
2019-06-27T09:07:39.112Z,1010.6
2019-06-27T09:08:37.773Z,1010.67
2019-06-27T09:09:36.479Z,1010.67
2019-06-27T09:10:35.042Z,1010.69
2019-06-27T09:11:37.054Z,1010.64
2019-06-27T09:12:32.171Z,1010.64
2019-06-27T09:13:30.695Z,1010.62
2019-06-27T09:14:29.215Z,1010.62
2019-06-27T09:15:27.861Z,1010.61
2019-06-27T09:16:26.378Z,1010.69
2019-06-27T09:17:25.223Z,1010.58
2019-06-27T09:18:23.991Z,1010.62
2019-06-27T09:19:22.407Z,1010.58
2019-06-27T09:20:21.187Z,1010.57
2019-06-27T09:21:19.729Z,1010.56
2019-06-27T09:22:18.242Z,1010.53
2019-06-27T09:23:16.783Z,1010.59
2019-06-27T09:24:15.406Z,1010.58
2019-06-27T09:25:13.965Z,1010.59
2019-06-27T09:26:12.526Z,1010.58
2019-06-27T09:27:11.300Z,1010.62
2019-06-27T09:28:09.880Z,1010.66
2019-06-27T09:29:08.456Z,1010.66
2019-06-27T09:30:07.263Z,1010.68
2019-06-27T09:31:05.816Z,1010.67
2019-06-27T09:32:04.412Z,1010.7
2019-06-27T09:33:02.959Z,1010.77
2019-06-27T09:34:01.526Z,1010.73
2019-06-27T09:35:00.380Z,1010.68
2019-06-27T09:35:58.936Z,1010.66
2019-06-27T09:36:57.591Z,1010.7
2019-06-27T09:37:56.115Z,1010.71
2019-06-27T09:38:54.757Z,1010.67
2019-06-27T09:39:53.319Z,1010.71
2019-06-27T09:40:51.804Z,1010.69
2019-06-27T09:41:50.501Z,1010.77
2019-06-27T09:42:49.096Z,1010.7
2019-06-27T09:43:47.593Z,1010.71
2019-06-27T09:44:46.207Z,1010.69
2019-06-27T09:45:44.647Z,1010.69
2019-06-27T09:46:43.177Z,1010.67
2019-06-27T09:47:41.686Z,1010.62
2019-06-27T09:48:40.249Z,1010.66
2019-06-27T09:49:38.838Z,1010.7
2019-06-27T09:50:37.417Z,1010.73
2019-06-27T09:51:35.992Z,1010.69
2019-06-27T09:52:34.456Z,1010.71
2019-06-27T09:53:33.293Z,1010.69
2019-06-27T09:54:31.852Z,1010.7
2019-06-27T09:55:30.431Z,1010.67
2019-06-27T09:56:29.269Z,1010.64
2019-06-27T09:57:27.816Z,1010.69
2019-06-27T09:58:26.433Z,1010.67
2019-06-27T09:59:25.006Z,1010.69
2019-06-27T10:00:23.608Z,1010.65
2019-06-27T10:01:22.180Z,1010.69
2019-06-27T10:02:20.736Z,1010.64
2019-06-27T10:03:19.431Z,1010.65
2019-06-27T10:04:17.970Z,1010.64
2019-06-27T10:05:16.493Z,1010.66
2019-06-27T10:06:15.311Z,1010.63
2019-06-27T10:07:14.075Z,1010.63
2019-06-27T10:08:12.620Z,1010.68
2019-06-27T10:09:11.182Z,1010.66
2019-06-27T10:10:09.795Z,1010.64
2019-06-27T10:11:08.253Z,1010.7
2019-06-27T10:12:07.052Z,1010.7
2019-06-27T10:13:05.648Z,1010.66
2019-06-27T10:14:04.178Z,1010.65
2019-06-27T10:15:02.818Z,1010.64
2019-06-27T10:16:01.341Z,1010.64
2019-06-27T10:16:59.869Z,1010.63
2019-06-27T10:17:58.505Z,1010.65
2019-06-27T10:18:57.059Z,1010.71
2019-06-27T10:19:55.704Z,1010.73
2019-06-27T10:20:54.211Z,1010.66
2019-06-27T10:21:52.779Z,1010.69
2019-06-27T10:22:51.379Z,1010.63
2019-06-27T10:23:49.928Z,1010.7
2019-06-27T10:24:48.498Z,1010.69
2019-06-27T10:25:47.296Z,1010.7
2019-06-27T10:26:45.840Z,1010.63
2019-06-27T10:27:44.361Z,1010.79
2019-06-27T10:28:43.033Z,1010.66
2019-06-27T10:29:41.746Z,1010.71
2019-06-27T10:30:40.281Z,1010.7
2019-06-27T10:31:38.828Z,1010.71
2019-06-27T10:32:37.413Z,1010.72
2019-06-27T10:33:35.939Z,1010.69
2019-06-27T10:34:34.491Z,1010.72
2019-06-27T10:35:33.033Z,1010.68
2019-06-27T10:36:31.552Z,1010.68
2019-06-27T10:37:30.211Z,1010.65
2019-06-27T10:38:28.998Z,1010.67
2019-06-27T10:39:27.677Z,1010.66
2019-06-27T10:40:26.224Z,1010.59
2019-06-27T10:43:24.588Z,1010.63
2019-06-27T10:44:23.383Z,1010.58
2019-06-27T10:45:21.963Z,1010.63
2019-06-27T10:46:21.477Z,1010.68
2019-06-27T10:47:20.026Z,1010.66
2019-06-27T10:48:18.675Z,1010.61
2019-06-27T10:49:17.207Z,1010.67
2019-06-27T10:50:15.777Z,1010.61
2019-06-27T10:51:14.393Z,1010.69
2019-06-27T10:52:13.166Z,1010.65
2019-06-27T10:53:11.821Z,1010.67
2019-06-27T10:54:10.374Z,1010.59
2019-06-27T10:55:09.118Z,1010.64
2019-06-27T10:56:07.670Z,1010.65
2019-06-27T10:57:06.197Z,1010.65
2019-06-27T10:58:04.767Z,1010.63
2019-06-27T10:59:03.345Z,1010.56
2019-06-27T11:00:02.171Z,1010.62
2019-06-27T11:01:00.429Z,1010.57
2019-06-27T11:01:58.953Z,1010.58
2019-06-27T11:03:11.140Z,1010.6
2019-06-27T11:03:56.035Z,1010.57
2019-06-27T11:04:54.596Z,1010.56
2019-06-27T11:05:53.205Z,1010.51
2019-06-27T11:14:59.394Z,1010.44
2019-06-27T11:17:41.405Z,1010.45
2019-06-27T11:18:56.484Z,1010.4
2019-06-27T11:20:00.403Z,1010.37
2019-06-27T11:23:14.820Z,1010.44
2019-06-27T11:24:13.886Z,1010.41
2019-06-27T11:31:22.856Z,1010.33
2019-06-27T11:32:22.868Z,1010.27
2019-06-27T11:33:32.099Z,1010.31
2019-06-27T11:34:34.899Z,1010.21
2019-06-27T11:37:22.486Z,1010.3
2019-06-27T11:40:50.809Z,1010.28
2019-06-27T11:41:50.597Z,1010.28
2019-06-27T11:43:01.108Z,1010.27
2019-06-27T11:44:06.104Z,1010.26
2019-06-27T11:45:05.105Z,1010.22
2019-06-27T11:46:07.785Z,1010.21
2019-06-27T11:47:05.310Z,1010.21
2019-06-27T11:48:03.819Z,1010.28
2019-06-27T11:49:07.612Z,1010.24
2019-06-27T11:51:24.389Z,1010.22
2019-06-27T11:52:28.226Z,1010.23
2019-06-27T11:53:27.733Z,1010.27
2019-06-27T11:54:26.257Z,1010.22
2019-06-27T11:55:24.797Z,1010.23
2019-06-27T11:56:23.467Z,1010.27
2019-06-27T11:57:22.008Z,1010.15
2019-06-27T11:58:20.523Z,1010.15
2019-06-27T11:59:19.233Z,1010.26
2019-06-27T12:00:17.887Z,1010.16
2019-06-27T12:01:16.412Z,1010.15
2019-06-27T12:02:15.237Z,1010.12
2019-06-27T12:03:13.769Z,1010.09
2019-06-27T12:04:12.347Z,1010.16
2019-06-27T12:05:10.858Z,1010.22
2019-06-27T12:06:09.388Z,1010.18
2019-06-27T12:07:07.957Z,1010.14
2019-06-27T12:08:06.536Z,1010.19
2019-06-27T12:09:05.094Z,1010.12
2019-06-27T12:10:03.717Z,1010.06
2019-06-27T12:11:02.272Z,1010.08
2019-06-27T12:12:00.875Z,1010.08
2019-06-27T12:12:59.550Z,1010.03
2019-06-27T12:13:58.074Z,1010.19
2019-06-27T12:14:56.822Z,1010.08
2019-06-27T12:15:55.406Z,1010.07
2019-06-27T12:16:53.994Z,1010.08
2019-06-27T12:17:52.558Z,1010.03
2019-06-27T12:18:51.108Z,1010.13
2019-06-27T12:19:49.660Z,1010.1
2019-06-27T12:20:48.203Z,1010.04
2019-06-27T12:21:46.753Z,1010.1
2019-06-27T12:22:45.299Z,1010.08
2019-06-27T12:23:43.854Z,1009.97
2019-06-27T12:24:42.394Z,1010
2019-06-27T12:25:41.706Z,1009.96
2019-06-27T12:26:39.789Z,1009.98
2019-06-27T12:27:38.364Z,1009.97
2019-06-27T12:28:37.590Z,1009.99
2019-06-27T12:29:36.155Z,1009.96
2019-06-27T12:30:34.774Z,1010.08
2019-06-27T12:31:33.420Z,1010.03
2019-06-27T12:32:32.705Z,1009.97